aviador You're here:

KJKL Decoded Metar

NOCTOR/JACKSON in KY, USA
Report Time2018-05-21 23:53:00
UTC Time2018-05-22 00:16:39
Flight Rules vfr VFR
WindCalm
Visibility9999 m
Phenomena:N/A
Clouds:Few 085 Hf
Expected CloudBase > 1,600 ft AGL from Temp-Dew spread
CeilingNone
Temp23°C (ISA +11)
Dew Point19°C (78% RH)
QNH1019 hPa
Density Alt2,703 ft
Elevation1,365 ft
Report Wrong Elevation
Raw Report
METAR KJKL 212353Z AUTO 00000KT 10SM FEW085 23/19 A3009 RMK AO2 SLP177
60033 T02280194 10300 20206 50000=

Extra information for KJKL:More info

Metar Taf Metar & Taf Last 4 Metars F.Rules Stats Wind Profile Meteogram Temp Stats Airport Information Weather charts Add Link Nearby VenuesMetar ALERT Operation Metar Decoded Social comments

AIRNAV info for KJKL